Time;durP1;ratioP1;P1;durP2;ratioP2;P2;SDS_P1;SDS_P2;PMS_P1;PMS_P2;Temp;Humidity;BMP_temperature;BMP_pressure;BME280_temperature;BME280_humidity;BME280_pressure;Samples;Min_cycle;Max_cycle;Signal;HPM_P1;HPM_P2
2022/12/24 00:00:59;;;;;;;3.50;1.50;;;12.70;60.20;;;;;;20550;6841;278021;-71
2022/12/24 00:03:25;;;;;;;2.03;0.97;;;12.90;59.50;;;;;;20735;6841;119098;-71
2022/12/24 00:05:50;;;;;;;3.55;1.62;;;12.80;60.00;;;;;;20465;6869;338892;-71
2022/12/24 00:08:17;;;;;;;1.53;1.20;;;12.60;60.40;;;;;;20693;6861;117761;-71
2022/12/24 00:10:42;;;;;;;3.27;1.50;;;12.70;60.50;;;;;;20498;6861;280541;-72
2022/12/24 00:13:08;;;;;;;3.17;1.30;;;12.60;61.50;;;;;;20683;6861;118390;-71
2022/12/24 00:15:34;;;;;;;2.27;1.33;;;12.60;60.90;;;;;;20708;6861;117453;-70
2022/12/24 00:18:00;;;;;;;3.20;1.50;;;12.30;61.80;;;;;;20483;6861;308563;-70
2022/12/24 00:20:25;;;;;;;6.60;1.73;;;12.40;61.50;;;;;;20492;6861;310956;-70
2022/12/24 00:22:51;;;;;;;2.37;1.37;;;12.60;60.70;;;;;;20701;6861;117672;-70
2022/12/24 00:25:17;;;;;;;1.90;1.30;;;12.60;60.70;;;;;;20683;6861;118378;-71
2022/12/24 00:27:42;;;;;;;1.93;1.20;;;12.30;61.50;;;;;;20703;6861;117873;-70
2022/12/24 00:30:08;;;;;;;2.35;1.60;;;12.10;62.50;;;;;;20492;6861;310639;-70
2022/12/24 00:32:34;;;;;;;3.20;1.40;;;12.30;61.80;;;;;;20495;6861;311743;-70
2022/12/24 00:34:59;;;;;;;2.90;1.48;;;12.50;60.70;;;;;;20738;6846;117164;-70
2022/12/24 00:37:25;;;;;;;2.90;1.30;;;12.50;61.00;;;;;;20503;6846;308989;-70
2022/12/24 00:39:50;;;;;;;2.92;1.52;;;12.60;60.40;;;;;;20522;6846;307648;-70
2022/12/24 00:42:16;;;;;;;3.35;1.30;;;12.80;60.20;;;;;;20738;6846;119236;-70
2022/12/24 00:44:42;;;;;;;2.70;1.27;;;12.70;59.90;;;;;;20749;6846;119261;-70
2022/12/24 00:47:07;;;;;;;2.92;1.58;;;12.40;60.70;;;;;;20523;6841;310973;-71
2022/12/24 00:49:34;;;;;;;3.58;1.40;;;12.30;60.90;;;;;;20769;6841;117144;-70
2022/12/24 00:51:59;;;;;;;1.70;1.27;;;12.30;60.70;;;;;;20542;6841;311519;-70
2022/12/24 00:54:25;;;;;;;2.37;1.33;;;12.40;60.20;;;;;;20763;6840;118823;-70
2022/12/24 00:56:50;;;;;;;4.70;1.25;;;12.30;60.70;;;;;;20715;6856;117288;-70
2022/12/24 00:59:16;;;;;;;2.60;1.40;;;12.10;61.40;;;;;;20489;6856;292370;-70
2022/12/24 01:01:41;;;;;;;3.97;1.50;;;12.20;60.40;;;;;;20514;6856;314506;-70
2022/12/24 01:06:53;;;;;;;2.10;1.40;;;12.30;60.30;;;;;;20762;6841;117630;-71
2022/12/24 01:09:19;;;;;;;3.80;1.43;;;11.80;62.70;;;;;;20746;6841;121082;-71
2022/12/24 01:11:45;;;;;;;1.87;1.33;;;11.80;62.00;;;;;;20768;6841;117695;-71
2022/12/24 01:14:11;;;;;;;2.92;1.70;;;11.60;62.70;;;;;;20554;6841;336855;-71
2022/12/24 01:16:36;;;;;;;5.80;1.63;;;11.80;61.80;;;;;;20541;6841;309720;-71
2022/12/24 01:19:02;;;;;;;2.50;1.40;;;12.10;60.60;;;;;;20763;6841;117269;-71
2022/12/24 01:21:27;;;;;;;4.07;1.70;;;12.10;60.70;;;;;;20534;6841;281169;-72
2022/12/24 01:23:53;;;;;;;2.30;1.40;;;12.20;60.20;;;;;;20766;6841;118270;-71
2022/12/24 01:26:18;;;;;;;4.10;1.40;;;12.10;60.50;;;;;;20758;6841;118062;-71
2022/12/24 01:28:44;;;;;;;3.27;1.80;;;11.80;61.20;;;;;;20553;6841;308967;-71
2022/12/24 01:31:13;;;;;;;7.50;2.13;;;12.00;60.70;;;;;;20748;6841;118192;-71
2022/12/24 01:33:39;;;;;;;2.17;1.20;;;11.90;60.80;;;;;;20757;6841;117258;-71
2022/12/24 01:36:04;;;;;;;1.97;1.10;;;11.70;61.50;;;;;;20765;6841;118348;-71
2022/12/24 01:38:30;;;;;;;3.93;1.57;;;11.50;62.10;;;;;;20758;6841;117084;-71
2022/12/24 01:43:41;;;;;;;2.90;1.60;;;11.60;61.70;;;;;;20763;6841;118155;-71
2022/12/24 01:46:23;;;;;;;5.18;1.77;;;11.60;61.80;;;;;;20555;6841;278357;-71
2022/12/24 01:48:52;;;;;;;3.50;1.80;;;11.70;61.00;;;;;;20393;6841;331806;-71
2022/12/24 01:51:18;;;;;;;3.00;1.70;;;12.10;60.60;;;;;;20734;6841;117609;-71
2022/12/24 01:53:43;;;;;;;5.10;1.90;;;12.00;60.80;;;;;;20512;6843;308009;-71
2022/12/24 01:56:09;;;;;;;3.60;1.87;;;12.10;59.90;;;;;;20526;6839;337739;-71
2022/12/24 01:58:34;;;;;;;4.67;1.60;;;12.30;59.00;;;;;;20561;6839;279713;-71
2022/12/24 02:01:00;;;;;;;2.97;1.50;;;12.50;58.00;;;;;;20771;6839;122110;-71
2022/12/24 02:03:25;;;;;;;5.93;1.33;;;12.40;58.40;;;;;;20764;6839;120861;-71
2022/12/24 02:05:51;;;;;;;1.83;1.55;;;12.00;59.30;;;;;;20779;6837;118833;-71
2022/12/24 02:08:16;;;;;;;4.82;1.62;;;11.80;60.10;;;;;;20597;6827;306655;-71
2022/12/24 02:10:42;;;;;;;3.43;1.97;;;11.90;59.30;;;;;;20603;6827;307988;-71
2022/12/24 02:13:08;;;;;;;4.72;2.03;;;12.20;58.30;;;;;;20576;6827;308578;-71
2022/12/24 02:15:57;;;;;;;3.75;1.60;;;12.40;57.50;;;;;;20815;6827;117114;-71
2022/12/24 02:18:32;;;;;;;5.07;1.92;;;12.30;58.10;;;;;;20600;6827;280600;-70
2022/12/24 02:21:15;;;;;;;4.45;2.00;;;12.30;57.40;;;;;;20586;6827;278265;-70
2022/12/24 02:23:53;;;;;;;4.43;1.67;;;12.50;56.70;;;;;;20788;6827;117580;-70
2022/12/24 02:26:29;;;;;;;3.17;1.80;;;12.00;58.40;;;;;;20790;6827;117496;-71
2022/12/24 02:29:11;;;;;;;3.27;1.77;;;12.00;58.40;;;;;;20803;6827;117365;-71
2022/12/24 02:31:40;;;;;;;3.43;1.73;;;11.80;59.40;;;;;;20591;6827;296337;-71
2022/12/24 02:34:12;;;;;;;4.75;2.05;;;11.90;58.60;;;;;;20590;6827;340560;-71
2022/12/24 02:36:41;;;;;;;3.43;1.80;;;12.30;57.80;;;;;;20804;6827;118152;-71
2022/12/24 02:39:10;;;;;;;3.83;2.10;;;12.20;58.30;;;;;;20569;6827;278492;-72
2022/12/24 02:44:21;;;;;;;5.23;1.90;;;12.40;57.70;;;;;;20609;6827;291394;-71
2022/12/24 02:46:48;;;;;;;3.63;1.50;;;12.30;57.60;;;;;;20800;6827;117276;-72
2022/12/24 02:49:14;;;;;;;4.47;2.10;;;12.30;58.20;;;;;;20578;6827;298239;-71
2022/12/24 02:51:40;;;;;;;3.28;1.65;;;12.30;58.10;;;;;;20813;6827;117248;-71
2022/12/24 02:54:06;;;;;;;2.67;1.70;;;12.30;58.00;;;;;;20807;6827;118257;-72
2022/12/24 02:56:55;;;;;;;2.58;1.52;;;11.90;60.10;;;;;;20807;6827;120542;-71
2022/12/24 02:59:28;;;;;;;3.40;1.60;;;11.90;59.50;;;;;;20788;6827;118359;-71
2022/12/24 03:02:01;;;;;;;2.67;1.27;;;11.70;60.80;;;;;;20774;6827;120614;-71
2022/12/24 03:04:40;;;;;;;6.37;2.20;;;11.60;60.70;;;;;;20577;6827;310559;-71
2022/12/24 03:07:12;;;;;;;4.40;1.80;;;11.90;59.80;;;;;;20579;6827;278411;-72
2022/12/24 03:09:37;;;;;;;4.57;1.90;;;12.30;58.60;;;;;;20592;6827;307661;-71
2022/12/24 03:12:03;;;;;;;3.07;1.90;;;12.60;57.60;;;;;;20581;6827;278544;-72
2022/12/24 03:14:29;;;;;;;4.87;1.80;;;12.80;56.90;;;;;;20805;6827;116980;-71
2022/12/24 03:16:54;;;;;;;3.97;1.55;;;12.70;57.40;;;;;;20823;6825;117421;-71
2022/12/24 03:19:20;;;;;;;3.62;1.80;;;12.50;58.30;;;;;;20577;6827;338268;-71
2022/12/24 03:21:45;;;;;;;3.85;1.58;;;12.50;57.80;;;;;;20816;6827;117170;-71
2022/12/24 03:24:11;;;;;;;3.05;1.42;;;12.50;58.20;;;;;;20806;6827;118033;-71
2022/12/24 03:26:37;;;;;;;3.20;1.48;;;12.10;59.50;;;;;;20809;6827;120950;-71
2022/12/24 03:29:02;;;;;;;2.50;1.43;;;12.00;59.40;;;;;;20809;6827;119831;-71
2022/12/24 03:31:29;;;;;;;4.45;2.15;;;12.10;59.10;;;;;;20574;6827;277987;-71
2022/12/24 03:33:54;;;;;;;3.27;1.80;;;12.10;59.10;;;;;;20774;6827;116986;-72
2022/12/24 03:36:20;;;;;;;3.72;1.73;;;12.20;59.20;;;;;;20815;6827;118882;-71
2022/12/24 03:38:46;;;;;;;3.12;1.65;;;11.90;60.10;;;;;;20820;6827;116956;-71
2022/12/24 03:41:12;;;;;;;3.93;1.73;;;11.90;60.00;;;;;;20591;6827;285536;-72
2022/12/24 03:43:37;;;;;;;4.10;1.80;;;12.10;59.30;;;;;;20604;6827;307930;-72
2022/12/24 03:46:03;;;;;;;5.28;1.62;;;12.40;58.40;;;;;;20823;6827;117365;-71
2022/12/24 03:48:29;;;;;;;2.63;1.57;;;12.40;58.60;;;;;;20806;6827;118632;-71
2022/12/24 03:50:55;;;;;;;8.13;1.67;;;12.00;60.00;;;;;;20815;6827;117006;-71
2022/12/24 03:53:20;;;;;;;4.67;1.50;;;11.90;59.90;;;;;;20794;6827;120799;-72
2022/12/24 03:55:46;;;;;;;4.13;1.83;;;11.80;60.50;;;;;;20595;6827;309617;-71
2022/12/24 03:58:12;;;;;;;3.92;1.95;;;12.00;59.60;;;;;;20810;6827;117725;-71
2022/12/24 04:00:38;;;;;;;2.45;1.50;;;11.90;60.50;;;;;;20806;6827;118125;-72
2022/12/24 04:03:03;;;;;;;5.77;1.60;;;11.90;60.20;;;;;;20796;6827;118319;-73
2022/12/24 04:05:30;;;;;;;3.22;1.73;;;11.90;59.50;;;;;;20597;6827;277907;-72
2022/12/24 04:07:55;;;;;;;3.93;2.03;;;11.90;59.40;;;;;;20812;6827;121507;-70
2022/12/24 04:10:21;;;;;;;5.10;1.77;;;12.00;59.60;;;;;;20600;6827;278656;-70
2022/12/24 04:12:46;;;;;;;5.27;2.10;;;12.20;58.70;;;;;;20603;6827;278343;-70
2022/12/24 04:15:12;;;;;;;5.40;1.93;;;12.50;57.60;;;;;;20589;6827;280229;-70
2022/12/24 04:17:38;;;;;;;3.93;1.80;;;12.60;57.20;;;;;;20812;6827;119271;-70
2022/12/24 04:20:04;;;;;;;4.77;2.23;;;12.60;57.20;;;;;;20791;6827;118579;-70
2022/12/24 04:22:31;;;;;;;4.10;1.60;;;12.40;58.00;;;;;;20807;6827;116929;-70
2022/12/24 04:24:56;;;;;;;3.22;1.98;;;12.10;58.70;;;;;;20810;6827;121160;-70
2022/12/24 04:27:22;;;;;;;3.40;1.60;;;11.70;59.80;;;;;;20795;6827;119992;-71
2022/12/24 04:29:47;;;;;;;7.00;2.00;;;11.70;59.80;;;;;;20808;6826;120395;-70
2022/12/24 04:32:13;;;;;;;7.87;2.10;;;11.60;60.30;;;;;;20817;6827;117500;-70
2022/12/24 04:34:39;;;;;;;3.35;1.48;;;11.40;60.70;;;;;;20812;6827;117038;-70
2022/12/24 04:37:04;;;;;;;5.07;2.00;;;11.30;61.00;;;;;;20591;6827;339366;-71
2022/12/24 04:39:30;;;;;;;2.45;1.83;;;11.60;60.00;;;;;;20822;6827;117115;-70
2022/12/24 04:41:55;;;;;;;5.50;2.10;;;11.60;59.90;;;;;;20599;6827;278003;-70
2022/12/24 04:44:21;;;;;;;3.53;1.95;;;11.80;59.00;;;;;;20822;6827;117029;-70
2022/12/24 04:46:46;;;;;;;6.57;2.07;;;11.80;59.10;;;;;;20810;6827;119958;-70
2022/12/24 04:49:13;;;;;;;2.70;1.80;;;11.40;59.90;;;;;;20791;6827;118016;-71
2022/12/24 04:51:38;;;;;;;4.97;1.80;;;11.40;60.20;;;;;;20594;6827;337011;-70
2022/12/24 04:54:04;;;;;;;3.83;1.77;;;11.60;59.60;;;;;;20597;6827;306827;-70
2022/12/24 04:56:30;;;;;;;4.32;1.83;;;12.20;57.90;;;;;;20600;6827;340638;-70
2022/12/24 04:58:56;;;;;;;3.67;1.77;;;12.10;57.80;;;;;;20805;6827;117335;-70
2022/12/24 05:01:21;;;;;;;4.20;2.00;;;12.00;58.10;;;;;;20774;6827;117931;-70
2022/12/24 05:03:47;;;;;;;4.85;2.05;;;11.70;58.80;;;;;;20596;6827;278426;-70
2022/12/24 05:06:13;;;;;;;5.50;2.40;;;12.10;57.90;;;;;;20605;6827;297544;-70
2022/12/24 05:08:39;;;;;;;4.60;1.80;;;12.10;57.90;;;;;;20799;6827;117056;-70
2022/12/24 05:11:04;;;;;;;2.10;1.57;;;12.00;58.20;;;;;;20791;6827;118437;-71
2022/12/24 05:13:30;;;;;;;3.22;1.40;;;11.70;58.90;;;;;;20810;6827;117923;-70
2022/12/24 05:15:55;;;;;;;3.33;2.15;;;11.40;59.80;;;;;;20597;6827;311531;-70
2022/12/24 05:18:22;;;;;;;9.27;1.80;;;11.60;59.90;;;;;;20808;6827;118276;-70
2022/12/24 05:20:47;;;;;;;5.17;2.17;;;11.60;59.90;;;;;;20593;6827;307997;-71
2022/12/24 05:26:22;;;;;;;2.87;1.67;;;12.00;58.10;;;;;;20800;6827;117435;-71
2022/12/24 05:28:57;;;;;;;6.18;2.20;;;11.90;58.30;;;;;;20520;6742;308673;-71
2022/12/24 05:31:33;;;;;;;5.03;2.00;;;12.00;57.80;;;;;;20683;6732;306328;-71
2022/12/24 05:34:09;;;;;;;5.17;2.20;;;12.50;57.40;;;;;;20690;6743;282110;-71
2022/12/24 05:36:45;;;;;;;5.70;2.20;;;12.40;56.80;;;;;;20674;6745;275769;-71
2022/12/24 05:39:20;;;;;;;4.90;1.93;;;12.60;56.50;;;;;;20847;6748;117342;-71
2022/12/24 05:41:56;;;;;;;5.40;2.20;;;12.30;56.90;;;;;;20649;6769;338114;-71
2022/12/24 05:44:37;;;;;;;4.73;1.73;;;12.20;57.00;;;;;;20918;6740;117452;-71
2022/12/24 05:47:07;;;;;;;4.85;2.40;;;12.00;57.70;;;;;;20650;6740;309612;-72
2022/12/24 05:49:43;;;;;;;3.30;1.80;;;12.00;57.70;;;;;;20850;6758;118173;-71
2022/12/24 05:52:18;;;;;;;4.93;2.08;;;11.80;58.10;;;;;;20660;6755;306254;-71
2022/12/24 05:54:55;;;;;;;5.72;2.22;;;12.10;57.50;;;;;;20550;6754;306127;-71
2022/12/24 05:57:30;;;;;;;5.63;2.13;;;12.00;57.40;;;;;;20554;6753;279493;-71
2022/12/24 06:00:06;;;;;;;7.83;1.80;;;12.20;56.90;;;;;;20860;6756;118575;-70
2022/12/24 06:02:42;;;;;;;6.77;2.03;;;12.00;57.40;;;;;;20818;6771;117613;-71
2022/12/24 06:05:17;;;;;;;4.03;1.87;;;11.60;58.30;;;;;;20845;6756;117307;-71
2022/12/24 06:07:53;;;;;;;4.28;2.20;;;11.30;59.20;;;;;;20544;6759;309297;-71
2022/12/24 06:10:28;;;;;;;6.07;2.03;;;11.30;59.20;;;;;;20900;6756;117381;-71
2022/12/24 06:13:04;;;;;;;3.60;1.60;;;11.30;59.50;;;;;;20898;6741;118035;-72
2022/12/24 06:15:40;;;;;;;5.35;2.00;;;11.00;60.10;;;;;;20642;6756;338880;-71
2022/12/24 06:18:18;;;;;;;5.00;1.90;;;11.20;60.00;;;;;;20705;6766;121588;-71
2022/12/24 06:20:51;;;;;;;5.90;2.20;;;10.90;60.70;;;;;;20852;6759;117061;-70
2022/12/24 06:23:27;;;;;;;5.68;2.20;;;10.90;60.70;;;;;;20681;6743;306139;-71
2022/12/24 06:26:03;;;;;;;8.00;2.43;;;11.10;60.30;;;;;;20915;6743;116995;-71
2022/12/24 06:28:39;;;;;;;5.10;1.83;;;11.10;60.30;;;;;;20752;6743;117682;-70
2022/12/24 06:31:14;;;;;;;4.90;2.15;;;10.90;60.90;;;;;;20676;6744;334342;-71
2022/12/24 06:33:50;;;;;;;4.60;2.08;;;11.10;60.30;;;;;;20704;6743;278661;-71
2022/12/24 06:36:26;;;;;;;6.10;2.43;;;11.40;59.30;;;;;;20853;6761;118583;-71
2022/12/24 06:39:02;;;;;;;7.70;2.42;;;11.40;58.90;;;;;;20508;6800;335257;-71
2022/12/24 06:41:38;;;;;;;4.60;2.00;;;11.40;58.90;;;;;;20961;6724;117147;-70
2022/12/24 06:44:13;;;;;;;5.75;2.50;;;11.30;59.20;;;;;;20710;6743;334555;-70
2022/12/24 06:46:49;;;;;;;6.03;2.20;;;11.40;58.80;;;;;;20687;6740;278593;-70
2022/12/24 06:49:24;;;;;;;3.60;1.63;;;11.60;58.00;;;;;;20794;6770;117129;-71
2022/12/24 06:52:00;;;;;;;3.50;1.90;;;11.50;58.30;;;;;;20888;6754;117800;-70
2022/12/24 06:54:35;;;;;;;6.03;2.50;;;11.20;59.10;;;;;;20737;6730;278049;-71
2022/12/24 06:57:11;;;;;;;7.13;1.70;;;11.30;58.80;;;;;;20867;6745;120234;-71
2022/12/24 06:59:47;;;;;;;7.57;2.40;;;11.20;59.00;;;;;;20706;6740;335691;-71
2022/12/24 07:02:23;;;;;;;6.22;2.42;;;11.30;58.50;;;;;;20669;6750;277578;-71
2022/12/24 07:04:58;;;;;;;8.13;2.10;;;11.60;57.80;;;;;;20879;6750;118678;-70
2022/12/24 07:07:33;;;;;;;4.80;1.87;;;11.50;58.20;;;;;;20797;6753;119729;-71
2022/12/24 07:10:09;;;;;;;5.37;3.12;;;11.20;59.00;;;;;;20701;6740;305923;-71
2022/12/24 07:12:45;;;;;;;6.55;2.50;;;11.40;58.60;;;;;;20714;6743;299257;-71
2022/12/24 07:15:20;;;;;;;5.50;2.33;;;11.70;57.90;;;;;;20877;6739;117106;-71
2022/12/24 07:17:56;;;;;;;9.13;2.43;;;11.60;58.20;;;;;;20881;6724;122258;-72
2022/12/24 07:20:31;;;;;;;4.75;2.47;;;11.30;58.80;;;;;;20756;6722;307667;-71
2022/12/24 07:23:07;;;;;;;5.07;2.30;;;11.40;58.30;;;;;;20677;6739;306191;-70
2022/12/24 07:25:43;;;;;;;4.07;2.10;;;11.70;57.50;;;;;;20918;6739;117200;-71
2022/12/24 07:28:18;;;;;;;6.20;2.23;;;11.60;57.80;;;;;;20787;6743;117197;-70
2022/12/24 07:30:57;;;;;;;1.83;1.70;;;11.40;58.70;;;;;;20847;6759;120355;-70
2022/12/24 07:33:33;;;;;;;6.90;2.33;;;11.10;59.30;;;;;;20899;6741;117745;-70
2022/12/24 07:36:08;;;;;;;5.77;2.07;;;11.00;60.00;;;;;;20964;6726;116879;-72
2022/12/24 07:38:45;;;;;;;5.70;1.90;;;10.70;60.80;;;;;;20762;6738;122976;-71
2022/12/24 07:41:20;;;;;;;5.13;2.43;;;10.60;60.70;;;;;;20734;6723;305261;-71
2022/12/24 07:43:56;;;;;;;5.53;2.20;;;10.90;59.60;;;;;;20960;6723;117486;-71
2022/12/24 07:46:32;;;;;;;6.17;2.13;;;10.80;59.80;;;;;;20915;6740;117845;-71
2022/12/24 07:49:08;;;;;;;7.03;2.65;;;10.80;60.00;;;;;;20617;6759;308110;-70
2022/12/24 07:51:43;;;;;;;7.57;3.00;;;11.10;59.00;;;;;;20719;6737;277093;-71
2022/12/24 07:54:19;;;;;;;7.87;2.80;;;11.50;57.90;;;;;;20898;6744;117381;-69
2022/12/24 07:56:54;;;;;;;9.70;2.57;;;11.50;58.20;;;;;;20926;6729;117950;-69
2022/12/24 07:59:31;;;;;;;5.40;2.50;;;11.30;58.80;;;;;;20728;6725;279289;-69
2022/12/24 08:02:07;;;;;;;5.60;2.40;;;11.40;58.00;;;;;;20906;6743;119538;-69
2022/12/24 08:04:42;;;;;;;5.93;2.40;;;11.40;58.30;;;;;;20911;6750;121033;-70
2022/12/24 08:07:18;;;;;;;6.77;2.40;;;11.20;58.80;;;;;;20849;6739;118447;-70
2022/12/24 08:09:54;;;;;;;6.77;4.40;;;11.10;59.50;;;;;;20928;6736;117229;-69
2022/12/24 08:12:29;;;;;;;21.35;18.48;;;10.90;60.00;;;;;;20701;6735;276077;-69
2022/12/24 08:15:05;;;;;;;31.73;24.20;;;11.20;58.90;;;;;;20898;6736;122302;-69
2022/12/24 08:17:41;;;;;;;7.57;4.75;;;11.30;59.10;;;;;;20635;6736;278302;-69
2022/12/24 08:20:16;;;;;;;7.30;3.10;;;11.50;58.20;;;;;;20680;6747;306636;-68
2022/12/24 08:22:52;;;;;;;7.77;2.60;;;11.80;57.20;;;;;;20887;6747;119426;-68
2022/12/24 08:25:27;;;;;;;10.68;5.00;;;11.80;57.50;;;;;;20524;6768;309187;-69
2022/12/24 08:28:03;;;;;;;5.57;4.70;;;11.90;57.10;;;;;;20730;6746;117598;-69
2022/12/24 08:30:38;;;;;;;7.07;3.83;;;11.80;57.50;;;;;;20868;6767;117156;-69
2022/12/24 08:33:14;;;;;;;9.27;5.12;;;11.60;58.20;;;;;;20616;6762;311789;-69
2022/12/24 08:35:50;;;;;;;7.27;3.40;;;11.70;57.50;;;;;;20871;6748;116835;-69
2022/12/24 08:38:25;;;;;;;6.77;3.30;;;11.70;57.90;;;;;;20723;6737;118405;-69
2022/12/24 08:41:01;;;;;;;6.00;2.50;;;11.50;58.50;;;;;;20934;6757;118263;-68
2022/12/24 08:43:36;;;;;;;8.30;5.03;;;11.30;59.10;;;;;;20908;6737;118328;-69
2022/12/24 08:46:12;;;;;;;9.50;4.20;;;11.20;59.60;;;;;;20859;6738;117031;-69
2022/12/24 08:48:47;;;;;;;6.13;2.43;;;11.10;60.00;;;;;;20742;6748;118166;-69
2022/12/24 08:51:23;;;;;;;8.30;3.70;;;11.00;60.40;;;;;;20724;6724;335844;-69
2022/12/24 08:53:59;;;;;;;9.32;6.35;;;11.30;59.00;;;;;;20662;6751;305814;-69
2022/12/24 08:56:35;;;;;;;8.23;5.47;;;11.70;58.00;;;;;;20762;6767;119377;-69
2022/12/24 08:59:11;;;;;;;8.77;6.60;;;11.70;58.00;;;;;;20633;6755;297941;-69
2022/12/24 09:01:46;;;;;;;11.87;6.47;;;11.90;57.00;;;;;;20649;6756;308114;-69
2022/12/24 09:04:22;;;;;;;15.10;9.43;;;12.20;56.00;;;;;;20896;6738;117531;-69
2022/12/24 09:06:57;;;;;;;13.70;8.50;;;12.20;56.50;;;;;;20549;6772;308324;-69
2022/12/24 09:09:34;;;;;;;15.23;7.67;;;12.20;56.30;;;;;;20920;6738;117044;-69
2022/12/24 09:12:09;;;;;;;9.97;6.17;;;12.20;56.30;;;;;;20733;6733;276418;-68
2022/12/24 09:14:45;;;;;;;8.10;4.50;;;12.40;55.20;;;;;;20952;6733;118045;-70
2022/12/24 09:17:21;;;;;;;10.07;5.00;;;12.30;55.70;;;;;;20795;6746;119790;-69
2022/12/24 09:19:56;;;;;;;8.95;4.72;;;12.20;56.50;;;;;;20761;6731;336412;-69
2022/12/24 09:22:35;;;;;;;8.03;3.17;;;12.30;55.10;;;;;;20772;6732;275801;-69
2022/12/24 09:25:10;;;;;;;7.40;2.70;;;12.70;54.30;;;;;;20964;6732;117823;-69
2022/12/24 09:27:47;;;;;;;6.55;3.28;;;12.70;54.30;;;;;;20686;6732;308532;-68
2022/12/24 09:30:22;;;;;;;7.47;3.07;;;12.70;54.30;;;;;;21046;6713;117019;-69
2022/12/24 09:32:58;;;;;;;3.30;2.30;;;12.60;55.00;;;;;;21023;6722;118987;-68
2022/12/24 09:35:34;;;;;;;7.97;3.17;;;12.50;55.60;;;;;;20807;6717;306254;-68
2022/12/24 09:38:10;;;;;;;7.40;3.10;;;12.50;54.90;;;;;;20698;6715;279372;-69
2022/12/24 09:40:47;;;;;;;6.93;2.93;;;12.80;54.30;;;;;;20945;6741;116895;-68
2022/12/24 09:43:23;;;;;;;12.40;3.00;;;12.60;55.70;;;;;;20972;6727;118032;-69
2022/12/24 09:46:08;;;;;;;7.17;3.00;;;12.50;55.60;;;;;;21000;6727;116969;-69
2022/12/24 09:48:44;;;;;;;9.77;3.20;;;12.50;56.20;;;;;;20613;6727;292140;-70
2022/12/24 09:51:23;;;;;;;7.47;2.90;;;12.40;55.30;;;;;;19914;6768;319115;-70
2022/12/24 09:53:59;;;;;;;6.77;2.97;;;12.80;54.40;;;;;;20785;6727;304494;-69
2022/12/24 09:56:38;;;;;;;9.43;2.87;;;13.00;54.20;;;;;;20781;6727;275486;-69
2022/12/24 09:59:13;;;;;;;5.70;2.60;;;13.20;53.70;;;;;;20966;6768;117123;-71
2022/12/24 10:01:49;;;;;;;7.40;3.17;;;13.00;54.20;;;;;;20775;6727;294717;-71
2022/12/24 10:04:25;;;;;;;7.57;2.83;;;13.00;53.90;;;;;;20976;6727;116898;-71
2022/12/24 10:07:04;;;;;;;6.35;2.83;;;13.00;55.00;;;;;;20749;6727;336935;-72
2022/12/24 10:10:13;;;;;;;6.78;3.12;;;13.00;55.00;;;;;;20769;6727;305471;-72
2022/12/24 10:12:48;;;;;;;6.67;3.10;;;13.30;54.60;;;;;;20762;6727;304159;-72
2022/12/24 10:15:54;;;;;;;7.30;2.77;;;13.70;54.00;;;;;;20957;6727;119514;-70
2022/12/24 10:18:52;;;;;;;5.87;3.10;;;13.70;54.50;;;;;;20622;6729;296596;-70
2022/12/24 10:21:48;;;;;;;7.40;3.00;;;13.80;53.30;;;;;;20721;6732;276916;-71
2022/12/24 10:24:30;;;;;;;7.60;3.30;;;14.20;52.30;;;;;;20758;6733;308637;-73
2022/12/24 10:27:16;;;;;;;4.60;2.77;;;14.40;53.10;;;;;;20889;6743;117971;-73
2022/12/24 10:29:52;;;;;;;5.80;2.70;;;14.10;54.60;;;;;;20990;6725;116799;-72
2022/12/24 10:32:28;;;;;;;8.38;3.03;;;14.10;53.90;;;;;;20756;6725;308102;-70
2022/12/24 10:35:07;;;;;;;6.70;2.60;;;14.10;52.40;;;;;;20991;6725;117165;-70
2022/12/24 10:37:42;;;;;;;8.30;2.77;;;14.10;53.20;;;;;;20684;6726;306592;-69
2022/12/24 10:40:31;;;;;;;5.25;2.67;;;14.10;52.40;;;;;;20707;6740;337425;-69
2022/12/24 10:43:17;;;;;;;6.33;2.53;;;14.40;52.50;;;;;;20861;6755;118828;-70
2022/12/24 10:45:59;;;;;;;7.20;2.47;;;13.90;53.80;;;;;;20922;6750;116976;-71
2022/12/24 10:48:35;;;;;;;5.67;2.70;;;14.00;51.90;;;;;;20510;6756;277896;-72
2022/12/24 10:51:28;;;;;;;6.40;2.30;;;14.00;51.90;;;;;;20922;6741;126532;-71
2022/12/24 10:54:14;;;;;;;6.60;2.33;;;13.90;52.70;;;;;;20664;6757;277973;-69
2022/12/24 10:56:49;;;;;;;5.20;2.60;;;14.00;51.80;;;;;;20899;6756;117430;-69
2022/12/24 10:59:28;;;;;;;5.78;2.92;;;13.90;52.50;;;;;;20732;6736;333796;-69
2022/12/24 11:02:03;;;;;;;5.33;2.40;;;14.00;51.90;;;;;;20920;6749;116767;-69
2022/12/24 11:04:39;;;;;;;7.93;2.67;;;14.00;52.80;;;;;;20880;6791;117331;-70
2022/12/24 11:07:20;;;;;;;10.23;2.60;;;13.80;53.50;;;;;;20812;6749;118437;-70
2022/12/24 11:10:00;;;;;;;8.02;2.97;;;13.60;54.00;;;;;;20749;6736;333315;-71
2022/12/24 11:12:35;;;;;;;7.33;2.67;;;13.80;52.20;;;;;;20805;6821;120736;-71
2022/12/24 11:15:17;;;;;;;7.53;2.57;;;13.80;53.00;;;;;;20884;6754;117247;-72
2022/12/24 11:17:59;;;;;;;7.17;2.97;;;13.70;53.80;;;;;;20516;6768;311487;-71
2022/12/24 11:20:35;;;;;;;7.37;2.90;;;13.80;52.70;;;;;;20697;6749;334785;-73
2022/12/24 11:23:13;;;;;;;7.60;2.90;;;14.10;51.40;;;;;;20687;6751;282124;-75
2022/12/24 11:25:46;;;;;;;7.13;2.83;;;14.40;50.90;;;;;;20802;6770;117244;-72
2022/12/24 11:28:23;;;;;;;7.53;2.67;;;14.30;51.80;;;;;;20474;6782;308818;-74
2022/12/24 11:31:06;;;;;;;5.50;2.40;;;14.30;51.20;;;;;;20978;6734;118461;-73
2022/12/24 11:33:47;;;;;;;9.67;2.67;;;14.20;52.10;;;;;;20973;6734;117522;-72
2022/12/24 11:36:23;;;;;;;6.23;2.43;;;13.90;53.00;;;;;;20978;6734;117423;-72
2022/12/24 11:38:59;;;;;;;8.27;2.60;;;13.70;53.80;;;;;;20793;6795;118276;-72
2022/12/24 11:41:37;;;;;;;4.97;2.23;;;13.60;54.40;;;;;;20968;6733;116515;-72
2022/12/24 11:44:14;;;;;;;5.77;2.37;;;13.50;54.70;;;;;;20985;6733;118072;-72
2022/12/24 11:46:55;;;;;;;6.83;2.83;;;13.40;55.10;;;;;;20748;6733;277501;-75
2022/12/24 11:49:25;;;;;;;3.53;2.33;;;13.70;53.40;;;;;;20952;6738;118781;-74
2022/12/24 11:52:11;;;;;;;10.37;2.37;;;13.90;53.90;;;;;;20937;6750;116834;-76
2022/12/24 11:55:07;;;;;;;7.47;3.05;;;13.80;54.20;;;;;;20695;6745;277641;-74
2022/12/24 11:57:55;;;;;;;7.07;2.78;;;14.10;52.30;;;;;;20702;6727;306844;-74
2022/12/24 12:00:30;;;;;;;5.55;2.95;;;14.50;51.30;;;;;;20779;6727;334153;-74
2022/12/24 12:03:06;;;;;;;5.50;2.77;;;14.90;50.70;;;;;;20965;6732;120065;-76
2022/12/24 12:05:43;;;;;;;6.80;2.72;;;14.80;51.10;;;;;;20684;6762;306075;-74
2022/12/24 12:08:19;;;;;;;6.83;2.77;;;14.80;50.50;;;;;;20841;6743;118786;-76
2022/12/24 12:10:54;;;;;;;6.03;2.83;;;14.80;51.40;;;;;;20756;6738;306014;-73
2022/12/24 12:13:31;;;;;;;5.53;2.47;;;14.90;51.00;;;;;;20980;6730;118978;-76
2022/12/24 12:16:28;;;;;;;5.87;2.80;;;14.80;51.70;;;;;;21000;6727;116977;-71
2022/12/24 12:19:04;;;;;;;7.70;3.03;;;14.60;52.40;;;;;;20510;6798;283261;-71
2022/12/24 12:21:39;;;;;;;7.07;2.63;;;14.80;51.10;;;;;;21012;6723;117538;-73
2022/12/24 12:24:18;;;;;;;5.23;2.23;;;14.90;51.90;;;;;;21007;6727;116930;-70
2022/12/24 12:27:18;;;;;;;7.67;3.00;;;14.90;51.50;;;;;;20768;6727;278094;-69
2022/12/24 12:29:57;;;;;;;5.43;2.80;;;14.90;51.50;;;;;;20763;6734;334153;-70
2022/12/24 12:32:36;;;;;;;8.83;2.83;;;15.70;49.90;;;;;;20678;6764;306299;-70
2022/12/24 12:35:23;;;;;;;5.73;2.80;;;15.90;49.10;;;;;;20661;6746;306381;-71
2022/12/24 12:38:01;;;;;;;6.53;3.08;;;15.90;49.10;;;;;;20618;6731;338881;-74
2022/12/24 12:41:03;;;;;;;8.17;2.70;;;16.20;48.90;;;;;;20739;6742;305322;-73
2022/12/24 12:44:11;;;;;;;6.62;2.75;;;16.40;48.50;;;;;;20699;6750;339396;-71
2022/12/24 12:46:46;;;;;;;6.72;3.00;;;16.60;47.90;;;;;;20698;6763;334391;-71
2022/12/24 12:49:45;;;;;;;5.82;2.90;;;16.70;47.20;;;;;;20607;6754;307288;-71
2022/12/24 12:52:40;;;;;;;7.17;2.97;;;16.80;47.30;;;;;;20864;6756;117385;-73
2022/12/24 12:55:49;;;;;;;5.97;2.53;;;16.50;48.40;;;;;;20784;6772;118190;-71
2022/12/24 12:58:35;;;;;;;7.62;3.00;;;16.10;49.30;;;;;;20493;6775;340252;-71
2022/12/24 13:01:16;;;;;;;4.53;2.13;;;16.00;48.00;;;;;;20854;6768;117546;-70
2022/12/24 13:04:16;;;;;;;8.17;3.00;;;15.70;47.60;;;;;;20760;6729;276254;-72
2022/12/24 13:06:57;;;;;;;4.80;2.23;;;15.70;47.60;;;;;;20972;6729;117261;-70
2022/12/24 13:09:53;;;;;;;8.57;2.30;;;15.40;48.70;;;;;;20985;6714;116394;-71
2022/12/24 13:12:32;;;;;;;8.52;3.65;;;15.00;49.70;;;;;;20772;6714;303945;-74
2022/12/24 13:15:28;;;;;;;8.97;2.90;;;15.10;49.30;;;;;;20963;6717;117185;-74
2022/12/24 13:18:17;;;;;;;8.13;2.80;;;14.60;50.80;;;;;;20826;6742;117138;-72
2022/12/24 13:20:53;;;;;;;8.57;3.00;;;14.60;50.80;;;;;;20687;6744;335936;-69